createdAt,value
2018-10-18T00:00:04.439Z,46.00
2018-10-18T00:00:39.677Z,43.30
2018-10-18T00:01:14.056Z,43.90
2018-10-18T00:01:48.792Z,49.90
2018-10-18T00:02:23.067Z,45.00
2018-10-18T00:02:57.627Z,51.73
2018-10-18T00:03:31.786Z,48.90
2018-10-18T00:04:06.022Z,48.60
2018-10-18T00:04:39.974Z,45.30
2018-10-18T00:05:15.485Z,50.08
2018-10-18T00:05:50.306Z,52.67
2018-10-18T00:06:25.351Z,43.68
2018-10-18T00:07:01.489Z,43.78
2018-10-18T00:07:37.234Z,47.70
2018-10-18T00:08:11.962Z,49.37
2018-10-18T00:08:48.122Z,44.90
2018-10-18T00:09:22.608Z,47.73
2018-10-18T00:09:58.341Z,57.67
2018-10-18T00:10:32.950Z,48.23
2018-10-18T00:11:09.408Z,44.80
2018-10-18T00:11:44.890Z,46.13
2018-10-18T00:12:19.649Z,44.03
2018-10-18T00:12:53.910Z,44.60
2018-10-18T00:13:27.954Z,50.17
2018-10-18T00:14:02.045Z,51.73
2018-10-18T00:14:35.919Z,44.63
2018-10-18T00:15:10.538Z,46.18
2018-10-18T00:15:46.032Z,45.52
2018-10-18T00:16:20.824Z,46.60
2018-10-18T00:16:55.278Z,41.37
2018-10-18T00:17:35.746Z,41.33
2018-10-18T00:18:10.355Z,43.20
2018-10-18T00:18:44.816Z,43.23
2018-10-18T00:19:20.020Z,42.73
2018-10-18T00:19:54.008Z,40.30
2018-10-18T00:20:32.664Z,44.90
2018-10-18T00:21:07.631Z,46.18
2018-10-18T00:21:42.617Z,40.15
2018-10-18T00:22:17.650Z,50.55
2018-10-18T00:22:51.892Z,44.38
2018-10-18T00:23:26.388Z,47.25
2018-10-18T00:24:00.355Z,46.37
2018-10-18T00:24:34.782Z,43.80
2018-10-18T00:25:08.906Z,46.70
2018-10-18T00:25:43.052Z,44.40
2018-10-18T00:26:17.098Z,41.23
2018-10-18T00:26:51.164Z,50.80
2018-10-18T00:27:25.288Z,48.07
2018-10-18T00:27:59.484Z,43.90
2018-10-18T00:28:33.654Z,43.50
2018-10-18T00:29:08.209Z,41.00
2018-10-18T00:29:42.398Z,43.07
2018-10-18T00:30:16.578Z,49.40
2018-10-18T00:30:50.872Z,51.00
2018-10-18T00:31:25.081Z,47.80
2018-10-18T00:31:59.070Z,41.90
2018-10-18T00:32:33.204Z,40.90
2018-10-18T00:33:07.279Z,43.50
2018-10-18T00:33:41.508Z,45.73
2018-10-18T00:34:16.014Z,41.92
2018-10-18T00:34:49.976Z,44.33
2018-10-18T00:35:24.202Z,43.87
2018-10-18T00:36:00.005Z,40.35
2018-10-18T00:36:34.154Z,45.10
2018-10-18T00:37:08.390Z,44.10
2018-10-18T00:37:42.834Z,42.78
2018-10-18T00:38:16.906Z,40.77
2018-10-18T00:38:51.624Z,46.80
2018-10-18T00:39:25.723Z,50.90
2018-10-18T00:39:59.998Z,43.95
2018-10-18T00:40:33.914Z,48.07
2018-10-18T00:41:08.225Z,37.40
2018-10-18T00:41:42.787Z,42.40
2018-10-18T00:42:17.125Z,40.00
2018-10-18T00:42:51.449Z,42.07
2018-10-18T00:43:26.626Z,43.95
2018-10-18T00:44:01.048Z,44.20
2018-10-18T00:44:35.304Z,43.07
2018-10-18T00:45:10.601Z,44.05
2018-10-18T00:45:45.296Z,43.78
2018-10-18T00:46:19.767Z,40.77
2018-10-18T00:46:54.046Z,45.15
2018-10-18T00:47:27.964Z,42.10
2018-10-18T00:48:02.400Z,42.98
2018-10-18T00:48:37.002Z,41.68
2018-10-18T00:49:11.300Z,44.23
2018-10-18T00:49:46.707Z,43.63
2018-10-18T00:50:21.189Z,43.13
2018-10-18T00:50:55.442Z,52.90
2018-10-18T00:51:29.528Z,49.90
2018-10-18T00:52:03.444Z,43.90
2018-10-18T00:52:38.156Z,44.05
2018-10-18T00:53:12.550Z,43.52
2018-10-18T00:53:46.766Z,45.23
2018-10-18T00:54:20.988Z,53.70
2018-10-18T00:54:55.248Z,44.73
2018-10-18T00:55:29.654Z,43.25
2018-10-18T00:56:04.248Z,43.30
2018-10-18T00:56:39.173Z,42.98
2018-10-18T00:57:13.616Z,43.43
2018-10-18T00:57:47.510Z,43.13
2018-10-18T00:58:21.412Z,46.23
2018-10-18T00:58:55.598Z,42.35
2018-10-18T00:59:29.530Z,47.07
2018-10-18T01:00:03.922Z,44.97
2018-10-18T01:00:37.983Z,46.53
2018-10-18T01:01:12.700Z,41.73
2018-10-18T01:01:46.948Z,42.78
2018-10-18T01:02:21.202Z,43.13
2018-10-18T01:02:55.363Z,44.67
2018-10-18T01:03:29.502Z,42.10
2018-10-18T01:04:03.948Z,42.25
2018-10-18T01:04:38.147Z,44.40
2018-10-18T01:05:12.828Z,42.73
2018-10-18T01:05:47.076Z,49.10
2018-10-18T01:06:21.329Z,53.43
2018-10-18T01:06:56.192Z,45.73
2018-10-18T01:07:31.020Z,52.90
2018-10-18T01:08:05.473Z,47.53
2018-10-18T01:08:39.757Z,56.08
2018-10-18T01:09:14.029Z,51.75
2018-10-18T01:09:48.627Z,47.80
2018-10-18T01:10:23.230Z,47.53
2018-10-18T01:10:57.544Z,53.50
2018-10-18T01:11:31.423Z,50.23
2018-10-18T01:12:05.583Z,49.83
2018-10-18T01:12:39.959Z,42.83
2018-10-18T01:13:14.327Z,54.95
2018-10-18T01:13:48.542Z,60.50
2018-10-18T01:14:23.259Z,46.47
2018-10-18T01:14:57.876Z,51.47
2018-10-18T01:15:31.860Z,50.77
2018-10-18T01:16:06.205Z,48.73
2018-10-18T01:16:40.708Z,49.27
2018-10-18T01:17:14.616Z,45.00
2018-10-18T01:17:48.537Z,54.80
2018-10-18T01:18:22.603Z,45.20
2018-10-18T01:18:56.544Z,47.13
2018-10-18T01:19:31.884Z,44.40
2018-10-18T01:20:06.391Z,48.85
2018-10-18T01:20:40.922Z,45.43
2018-10-18T01:21:15.166Z,48.42
2018-10-18T01:21:49.518Z,47.75
2018-10-18T01:22:23.384Z,47.37
2018-10-18T01:22:57.366Z,48.30
2018-10-18T01:24:22.328Z,47.10
2018-10-18T01:24:56.458Z,50.78
2018-10-18T01:25:30.581Z,47.00
2018-10-18T01:26:04.784Z,47.35
2018-10-18T01:26:39.050Z,49.42
2018-10-18T01:27:13.491Z,51.25
2018-10-18T01:27:47.310Z,49.53
2018-10-18T01:28:21.472Z,45.38
2018-10-18T01:28:55.636Z,50.00
2018-10-18T01:29:29.765Z,49.80
2018-10-18T01:30:04.828Z,51.88
2018-10-18T01:30:39.421Z,46.92
2018-10-18T01:31:13.261Z,47.07
2018-10-18T01:31:47.410Z,52.33
2018-10-18T01:32:21.548Z,49.45
2018-10-18T01:32:55.637Z,50.75
2018-10-18T01:33:29.730Z,47.17
2018-10-18T01:34:03.808Z,47.48
2018-10-18T01:34:38.238Z,45.80
2018-10-18T01:35:12.345Z,46.83
2018-10-18T01:35:46.502Z,49.03
2018-10-18T01:36:20.331Z,42.67
2018-10-18T01:36:54.269Z,49.07
2018-10-18T01:37:28.367Z,44.03
2018-10-18T01:38:02.519Z,45.85
2018-10-18T01:38:36.774Z,42.62
2018-10-18T01:39:11.400Z,44.48
2018-10-18T01:39:45.318Z,48.20
2018-10-18T01:40:19.440Z,45.05
2018-10-18T01:40:53.668Z,50.23
2018-10-18T01:41:28.933Z,43.70
2018-10-18T01:42:03.053Z,54.38
2018-10-18T01:42:37.353Z,47.55
2018-10-18T01:43:11.463Z,44.50
2018-10-18T01:43:45.679Z,45.27
2018-10-18T01:44:20.451Z,45.98
2018-10-18T01:44:54.860Z,46.92
2018-10-18T01:45:29.014Z,48.35
2018-10-18T01:46:04.152Z,49.40
2018-10-18T01:46:38.873Z,50.33
2018-10-18T01:47:13.318Z,46.42
2018-10-18T01:47:47.668Z,51.08
2018-10-18T01:48:21.748Z,44.90
2018-10-18T01:48:55.860Z,47.62
2018-10-18T01:49:29.952Z,48.55
2018-10-18T01:50:05.401Z,42.70
2018-10-18T01:50:39.679Z,47.43
2018-10-18T01:51:13.496Z,48.20
2018-10-18T01:51:47.921Z,50.67
2018-10-18T01:52:23.376Z,47.33
2018-10-18T01:52:57.170Z,50.27
2018-10-18T01:53:31.280Z,49.60
2018-10-18T01:54:05.354Z,51.53
2018-10-18T01:54:39.272Z,45.77
2018-10-18T01:55:14.189Z,47.50
2018-10-18T01:55:48.037Z,46.47
2018-10-18T01:56:22.124Z,48.33
2018-10-18T01:56:55.959Z,48.27
2018-10-18T01:57:30.041Z,53.55
2018-10-18T01:58:04.616Z,47.70
2018-10-18T01:58:38.532Z,44.03
2018-10-18T01:59:12.989Z,46.92
2018-10-18T01:59:47.254Z,45.78
2018-10-18T02:00:22.061Z,46.98
2018-10-18T02:00:56.374Z,48.13
2018-10-18T02:01:31.125Z,46.08
2018-10-18T02:02:05.649Z,58.60
2018-10-18T02:02:40.274Z,47.78
2018-10-18T02:03:14.411Z,53.33
2018-10-18T02:03:49.123Z,51.68
2018-10-18T02:04:23.782Z,50.30
2018-10-18T02:04:58.385Z,48.83
2018-10-18T02:05:32.924Z,47.53
2018-10-18T02:06:07.814Z,50.73
2018-10-18T02:06:42.373Z,54.03
2018-10-18T02:07:16.208Z,46.40
2018-10-18T02:07:50.388Z,44.48
2018-10-18T02:08:24.809Z,50.75
2018-10-18T02:08:59.637Z,51.75
2018-10-18T02:09:34.375Z,50.88
2018-10-18T02:10:08.539Z,46.57
2018-10-18T02:10:42.616Z,48.05
2018-10-18T02:11:17.768Z,47.90
2018-10-18T02:11:51.595Z,50.33
2018-10-18T02:12:25.929Z,47.73
2018-10-18T02:14:03.484Z,55.33
2018-10-18T02:14:37.584Z,49.30
2018-10-18T02:15:11.668Z,49.58
2018-10-18T02:15:46.092Z,55.35
2018-10-18T02:16:20.227Z,50.08
2018-10-18T02:16:54.292Z,50.60
2018-10-18T02:17:29.557Z,46.68
2018-10-18T02:18:03.688Z,46.25
2018-10-18T02:18:38.293Z,51.20
2018-10-18T02:19:12.420Z,51.13
2018-10-18T02:19:47.039Z,50.90
2018-10-18T02:20:21.182Z,56.53
2018-10-18T02:20:55.264Z,51.15
2018-10-18T02:21:29.368Z,53.00
2018-10-18T02:22:03.437Z,49.77
2018-10-18T02:22:37.605Z,55.50
2018-10-18T02:23:11.412Z,47.70
2018-10-18T02:23:45.525Z,53.95
2018-10-18T02:24:19.590Z,52.05
2018-10-18T02:24:53.675Z,52.55
2018-10-18T02:25:27.694Z,53.23
2018-10-18T02:26:01.787Z,52.35
2018-10-18T02:26:36.259Z,51.48
2018-10-18T02:27:10.322Z,52.20
2018-10-18T02:27:44.405Z,52.30
2018-10-18T02:28:18.968Z,50.87
2018-10-18T02:28:53.161Z,49.40
2018-10-18T02:29:27.216Z,48.38
2018-10-18T02:30:01.542Z,54.13
2018-10-18T02:30:36.149Z,50.43
2018-10-18T02:31:10.248Z,53.05
2018-10-18T02:31:44.359Z,51.23
2018-10-18T02:32:18.824Z,49.90
2018-10-18T02:32:53.231Z,56.68
2018-10-18T02:33:27.298Z,47.65
2018-10-18T02:34:01.243Z,53.00
2018-10-18T02:34:35.325Z,47.45
2018-10-18T02:35:10.221Z,47.90
2018-10-18T02:35:44.631Z,45.35
2018-10-18T02:36:19.140Z,46.28
2018-10-18T02:36:53.096Z,45.57
2018-10-18T02:37:27.441Z,52.90
2018-10-18T02:38:01.581Z,53.78
2018-10-18T02:38:35.447Z,47.40
2018-10-18T02:39:10.044Z,44.05
2018-10-18T02:39:43.856Z,46.90
2018-10-18T02:40:18.297Z,45.90
2018-10-18T02:40:52.742Z,46.58
2018-10-18T02:41:26.852Z,45.92
2018-10-18T02:42:01.000Z,50.95
2018-10-18T02:42:35.277Z,50.85
2018-10-18T02:43:09.349Z,50.70
2018-10-18T02:43:43.793Z,53.68
2018-10-18T02:44:18.367Z,49.55
2018-10-18T02:44:52.475Z,54.80
2018-10-18T02:45:26.563Z,51.08
2018-10-18T02:46:00.665Z,48.50
2018-10-18T02:46:34.503Z,52.47
2018-10-18T02:47:08.969Z,49.88
2018-10-18T02:47:43.072Z,58.30
2018-10-18T02:48:17.261Z,58.70
2018-10-18T02:48:51.453Z,56.85
2018-10-18T02:49:26.125Z,52.62
2018-10-18T02:50:00.216Z,52.98
2018-10-18T02:50:34.653Z,51.70
2018-10-18T02:51:08.761Z,48.73
2018-10-18T02:51:42.853Z,56.20
2018-10-18T02:52:16.981Z,53.48
2018-10-18T02:52:51.390Z,54.73
2018-10-18T02:53:25.801Z,54.95
2018-10-18T02:53:59.901Z,57.58
2018-10-18T02:54:34.617Z,57.35
2018-10-18T02:55:09.377Z,54.53
2018-10-18T02:55:43.491Z,66.37
2018-10-18T02:56:17.680Z,55.50
2018-10-18T02:56:52.124Z,52.67
2018-10-18T02:57:26.249Z,52.17
2018-10-18T02:58:00.869Z,53.78
2018-10-18T02:58:34.935Z,51.75
2018-10-18T02:59:09.048Z,55.50
2018-10-18T02:59:43.151Z,54.80
2018-10-18T03:00:17.298Z,51.40
2018-10-18T03:00:51.565Z,52.73
2018-10-18T03:01:25.417Z,54.20
2018-10-18T03:01:59.242Z,56.47
2018-10-18T03:02:33.347Z,55.17
2018-10-18T03:03:07.445Z,55.17
2018-10-18T03:03:41.883Z,58.50
2018-10-18T03:04:16.229Z,54.63
2018-10-18T03:04:50.325Z,53.10
2018-10-18T03:05:24.449Z,53.50
2018-10-18T03:05:59.207Z,53.68
2018-10-18T03:06:33.461Z,56.50
2018-10-18T03:07:08.199Z,59.60
2018-10-18T03:07:42.309Z,55.50
2018-10-18T03:08:16.418Z,50.92
2018-10-18T03:08:50.660Z,63.40
2018-10-18T03:09:25.083Z,57.20
2018-10-18T03:09:59.185Z,57.50
2018-10-18T03:10:33.357Z,58.00
2018-10-18T03:11:07.465Z,67.37
2018-10-18T03:11:41.949Z,63.25
2018-10-18T03:12:16.122Z,64.62
2018-10-18T03:12:50.375Z,64.27
2018-10-18T03:13:24.544Z,62.37
2018-10-18T03:13:58.633Z,62.08
2018-10-18T03:14:32.712Z,57.83
2018-10-18T03:15:07.221Z,59.93
2018-10-18T03:15:41.041Z,77.37
2018-10-18T03:16:15.532Z,57.08
2018-10-18T03:16:49.754Z,64.25
2018-10-18T03:17:24.193Z,64.77
2018-10-18T03:17:58.344Z,62.00
2018-10-18T03:18:32.653Z,66.60
2018-10-18T03:19:07.069Z,62.78
2018-10-18T03:19:41.168Z,68.87
2018-10-18T03:20:15.269Z,65.08
2018-10-18T03:20:49.773Z,59.63
2018-10-18T03:21:23.598Z,62.87
2018-10-18T03:21:57.713Z,74.97
2018-10-18T03:22:31.809Z,70.67
2018-10-18T03:23:06.493Z,66.25
2018-10-18T03:23:40.933Z,65.12
2018-10-18T03:24:15.571Z,61.73
2018-10-18T03:24:49.707Z,61.33
2018-10-18T03:25:24.634Z,66.28
2018-10-18T03:25:59.233Z,62.70
2018-10-18T03:26:33.300Z,61.73
2018-10-18T03:27:07.593Z,63.17
2018-10-18T03:27:42.009Z,60.12
2018-10-18T03:28:16.140Z,56.13
2018-10-18T03:28:50.236Z,66.97
2018-10-18T03:29:24.554Z,59.63
2018-10-18T03:29:58.730Z,63.42
2018-10-18T03:30:32.987Z,70.15
2018-10-18T03:31:07.152Z,60.17
2018-10-18T03:31:41.246Z,62.50
2018-10-18T03:32:15.359Z,63.68
2018-10-18T03:32:49.470Z,63.33
2018-10-18T03:33:23.610Z,65.50
2018-10-18T03:33:58.088Z,64.03
2018-10-18T03:34:32.536Z,62.43
2018-10-18T03:35:07.281Z,66.75
2018-10-18T03:35:41.388Z,63.87
2018-10-18T03:36:16.271Z,64.65
2018-10-18T03:36:50.489Z,61.75
2018-10-18T03:37:24.603Z,66.20
2018-10-18T03:37:58.706Z,60.88
2018-10-18T03:38:33.177Z,63.65
2018-10-18T03:39:09.568Z,61.48
2018-10-18T03:39:43.667Z,61.02
2018-10-18T03:40:17.826Z,59.83
2018-10-18T03:40:51.890Z,64.17
2018-10-18T03:41:26.347Z,63.65
2018-10-18T03:42:00.624Z,63.80
2018-10-18T03:42:34.916Z,66.92
2018-10-18T03:43:09.038Z,66.70
2018-10-18T03:43:43.145Z,61.13
2018-10-18T03:44:17.221Z,68.33
2018-10-18T03:44:51.344Z,63.58
2018-10-18T03:45:26.129Z,65.50
2018-10-18T03:46:00.238Z,68.33
2018-10-18T03:46:34.494Z,74.75
2018-10-18T03:47:09.196Z,67.03
2018-10-18T03:47:43.277Z,74.67
2018-10-18T03:48:17.825Z,68.07
2018-10-18T03:48:52.047Z,68.25
2018-10-18T03:49:26.462Z,75.67
2018-10-18T03:50:00.549Z,72.08
2018-10-18T03:50:34.622Z,69.15
2018-10-18T03:51:08.738Z,75.78
2018-10-18T03:51:43.162Z,72.55
2018-10-18T03:52:17.271Z,71.85
2018-10-18T03:52:51.372Z,64.85
2018-10-18T03:53:25.465Z,73.40
2018-10-18T03:53:59.604Z,76.65
2018-10-18T03:54:34.202Z,72.72
2018-10-18T03:55:08.288Z,66.80
2018-10-18T03:55:42.693Z,70.20
2018-10-18T03:56:16.785Z,79.37
2018-10-18T03:56:50.865Z,78.80
2018-10-18T03:57:25.320Z,81.53
2018-10-18T03:57:59.449Z,78.37
2018-10-18T03:58:33.547Z,75.60
2018-10-18T03:59:08.412Z,76.22
2018-10-18T03:59:42.591Z,76.12
2018-10-18T04:00:16.979Z,78.37
2018-10-18T04:00:51.146Z,70.47
2018-10-18T04:01:25.618Z,75.57
2018-10-18T04:01:59.709Z,73.40
2018-10-18T04:02:34.116Z,79.65
2018-10-18T04:03:08.566Z,71.17
2018-10-18T04:03:43.066Z,74.27
2018-10-18T04:04:17.584Z,62.40
2018-10-18T04:04:51.682Z,82.17
2018-10-18T04:05:25.778Z,75.90
2018-10-18T04:05:59.895Z,74.80
2018-10-18T04:06:34.194Z,77.42
2018-10-18T04:07:08.746Z,71.07
2018-10-18T04:07:42.826Z,78.12
2018-10-18T04:08:16.938Z,80.00
2018-10-18T04:08:51.025Z,74.07
2018-10-18T04:09:25.478Z,79.15
2018-10-18T04:09:59.589Z,88.95
2018-10-18T04:10:33.663Z,82.80
2018-10-18T04:11:08.074Z,72.55
2018-10-18T04:11:42.209Z,75.75
2018-10-18T04:12:16.764Z,79.25
2018-10-18T04:12:51.462Z,83.00
2018-10-18T04:13:25.562Z,72.97
2018-10-18T04:13:59.696Z,81.08
2018-10-18T04:14:33.800Z,81.30
2018-10-18T04:15:08.066Z,77.78
2018-10-18T04:15:42.153Z,70.90
2018-10-18T04:16:16.571Z,81.40
2018-10-18T04:16:50.674Z,79.40
2018-10-18T04:17:24.784Z,79.92
2018-10-18T04:17:59.341Z,80.90
2018-10-18T04:18:33.661Z,76.45
2018-10-18T04:19:08.172Z,80.38
2018-10-18T04:19:42.294Z,74.87
2018-10-18T04:20:16.393Z,79.12
2018-10-18T04:20:50.498Z,80.77
2018-10-18T04:21:24.906Z,78.85
2018-10-18T04:21:59.326Z,85.87
2018-10-18T04:22:33.410Z,82.08
2018-10-18T04:23:07.514Z,80.70
2018-10-18T04:23:41.612Z,81.72
2018-10-18T04:24:16.086Z,82.47
2018-10-18T04:24:50.380Z,86.40
2018-10-18T04:25:24.469Z,87.35
2018-10-18T04:25:59.738Z,81.25
2018-10-18T04:26:34.497Z,90.42
2018-10-18T04:27:08.814Z,77.97
2018-10-18T04:27:42.893Z,88.15
2018-10-18T04:28:16.993Z,82.15
2018-10-18T04:28:51.082Z,81.55
2018-10-18T04:29:25.174Z,80.85
2018-10-18T04:29:59.314Z,76.45
2018-10-18T04:30:33.578Z,74.92
2018-10-18T04:31:07.665Z,80.00
2018-10-18T04:31:41.748Z,74.42
2018-10-18T04:32:16.165Z,74.92
2018-10-18T04:32:50.257Z,71.95
2018-10-18T04:33:24.465Z,78.37
2018-10-18T04:33:58.581Z,73.83
2018-10-18T04:34:36.370Z,78.45
2018-10-18T04:35:10.478Z,76.28
2018-10-18T04:35:44.561Z,83.22
2018-10-18T04:36:18.821Z,70.08
2018-10-18T04:36:53.005Z,73.83
2018-10-18T04:37:27.481Z,73.37
2018-10-18T04:38:01.736Z,76.35
2018-10-18T04:38:35.848Z,72.25
2018-10-18T04:39:11.708Z,78.80
2018-10-18T04:39:45.884Z,81.00
2018-10-18T04:40:20.666Z,68.47
2018-10-18T04:40:54.785Z,71.10
2018-10-18T04:41:29.631Z,71.42
2018-10-18T04:42:03.799Z,70.08
2018-10-18T04:42:38.784Z,72.80
2018-10-18T04:43:12.897Z,73.90
2018-10-18T04:43:47.019Z,79.32
2018-10-18T04:44:21.098Z,71.87
2018-10-18T04:44:55.208Z,72.35
2018-10-18T04:45:29.643Z,71.50
2018-10-18T04:46:04.417Z,75.47
2018-10-18T04:46:38.683Z,67.47
2018-10-18T04:47:13.151Z,75.45
2018-10-18T04:47:47.569Z,73.97
2018-10-18T04:48:21.887Z,70.35
2018-10-18T04:48:56.223Z,74.50
2018-10-18T04:49:30.426Z,73.52
2018-10-18T04:50:04.985Z,71.42
2018-10-18T04:50:39.569Z,75.25
2018-10-18T04:51:13.699Z,71.97
2018-10-18T04:51:47.826Z,68.70
2018-10-18T04:52:21.949Z,78.25
2018-10-18T04:53:02.914Z,73.35
2018-10-18T04:53:37.006Z,71.92
2018-10-18T04:54:11.112Z,71.37
2018-10-18T04:54:45.580Z,66.60
2018-10-18T04:55:19.692Z,75.55
2018-10-18T04:55:53.837Z,75.80
2018-10-18T04:56:28.422Z,73.70
2018-10-18T04:57:02.924Z,71.33
2018-10-18T04:57:37.037Z,71.65
2018-10-18T04:58:11.123Z,76.33
2018-10-18T04:58:45.218Z,76.35
2018-10-18T04:59:19.320Z,76.95
2018-10-18T04:59:53.381Z,81.80
2018-10-18T05:00:28.134Z,78.33
2018-10-18T05:01:02.309Z,73.50
2018-10-18T05:01:36.937Z,78.15
2018-10-18T05:02:11.054Z,71.92
2018-10-18T05:02:45.220Z,75.52
2018-10-18T05:03:19.489Z,80.65
2018-10-18T05:03:53.923Z,77.67
2018-10-18T05:04:28.389Z,72.72
2018-10-18T05:05:14.183Z,79.22
2018-10-18T05:05:51.750Z,80.20
2018-10-18T05:06:25.842Z,77.40
2018-10-18T05:06:59.954Z,76.22
2018-10-18T05:07:34.216Z,79.70
2018-10-18T05:08:08.633Z,78.35
2018-10-18T05:08:42.716Z,84.58
2018-10-18T05:09:17.142Z,80.10
2018-10-18T05:09:51.234Z,98.97
2018-10-18T05:10:25.397Z,80.67
2018-10-18T05:10:59.481Z,77.17
2018-10-18T05:11:33.659Z,77.32
2018-10-18T05:12:08.070Z,81.05
2018-10-18T05:12:42.248Z,86.37
2018-10-18T05:13:17.038Z,81.55
2018-10-18T05:13:51.594Z,75.65
2018-10-18T05:14:25.670Z,81.53
2018-10-18T05:15:00.106Z,84.05
2018-10-18T05:15:34.217Z,79.97
2018-10-18T05:16:08.337Z,81.57
2018-10-18T05:16:42.457Z,90.25
2018-10-18T05:17:16.552Z,77.97
2018-10-18T05:17:50.979Z,84.32
2018-10-18T05:18:25.190Z,83.72
2018-10-18T05:18:59.770Z,78.92
2018-10-18T05:19:34.465Z,80.00
2018-10-18T05:20:08.537Z,85.70
2018-10-18T05:20:42.629Z,80.10
2018-10-18T05:21:17.057Z,84.35
2018-10-18T05:21:51.173Z,76.95
2018-10-18T05:22:25.279Z,79.40
2018-10-18T05:22:59.414Z,79.35
2018-10-18T05:23:33.853Z,84.47
2018-10-18T05:24:07.942Z,90.87
2018-10-18T05:24:42.082Z,85.42
2018-10-18T05:25:16.601Z,89.77
2018-10-18T05:25:51.656Z,81.60
2018-10-18T05:26:25.808Z,77.62
2018-10-18T05:26:59.868Z,92.50
2018-10-18T05:27:33.968Z,86.45
2018-10-18T05:28:08.725Z,86.95
2018-10-18T05:28:42.797Z,85.55
2018-10-18T05:29:16.894Z,92.35
2018-10-18T05:29:51.096Z,100.47
2018-10-18T05:30:25.530Z,94.70
2018-10-18T05:30:59.638Z,91.75
2018-10-18T05:31:34.667Z,96.78
2018-10-18T05:32:09.328Z,86.95
2018-10-18T05:32:43.437Z,100.95
2018-10-18T05:33:17.534Z,96.15
2018-10-18T05:33:51.609Z,108.50
2018-10-18T05:34:25.792Z,111.57
2018-10-18T05:35:00.015Z,110.42
2018-10-18T05:35:34.777Z,108.32
2018-10-18T05:36:09.174Z,106.67
2018-10-18T05:36:43.367Z,121.60
2018-10-18T05:37:17.926Z,102.75
2018-10-18T05:37:52.784Z,107.35
2018-10-18T05:38:27.366Z,110.97
2018-10-18T05:39:01.781Z,109.30
2018-10-18T05:39:35.878Z,108.47
2018-10-18T05:40:10.632Z,103.20
2018-10-18T05:40:45.213Z,105.72
2018-10-18T05:41:19.645Z,107.37
2018-10-18T05:41:53.782Z,106.03
2018-10-18T05:42:27.614Z,118.00
2018-10-18T05:43:01.773Z,117.05
2018-10-18T05:43:35.741Z,112.13
2018-10-18T05:44:09.846Z,111.40
2018-10-18T05:44:44.277Z,119.20
2018-10-18T05:45:18.716Z,127.58
2018-10-18T05:45:53.754Z,118.42
2018-10-18T05:46:28.545Z,128.10
2018-10-18T05:47:03.208Z,119.72
2018-10-18T05:47:37.346Z,127.60
2018-10-18T05:48:11.425Z,122.53
2018-10-18T05:48:45.524Z,116.15
2018-10-18T05:49:19.642Z,121.47
2018-10-18T05:49:54.292Z,123.58
2018-10-18T05:50:28.729Z,121.70
2018-10-18T05:51:02.820Z,119.35
2018-10-18T05:51:36.990Z,131.20
2018-10-18T05:52:11.108Z,118.85
2018-10-18T05:52:45.526Z,117.97
2018-10-18T05:53:20.095Z,123.13
2018-10-18T05:53:54.499Z,133.63
2018-10-18T05:54:28.630Z,125.90
2018-10-18T05:55:03.085Z,120.62
2018-10-18T05:55:37.692Z,131.82
2018-10-18T05:56:11.848Z,130.07
2018-10-18T05:56:46.266Z,125.42
2018-10-18T05:57:20.399Z,127.42
2018-10-18T05:57:54.230Z,129.60
2018-10-18T05:58:28.315Z,128.68
2018-10-18T05:59:02.754Z,122.00
2018-10-18T05:59:36.833Z,126.85
2018-10-18T06:00:15.359Z,117.93
2018-10-18T06:00:49.548Z,130.57
2018-10-18T06:01:24.108Z,125.50
2018-10-18T06:01:58.272Z,131.50
2018-10-18T06:02:32.736Z,123.95
2018-10-18T06:03:07.162Z,133.20
2018-10-18T06:03:41.297Z,119.10
2018-10-18T06:04:15.364Z,121.05
2018-10-18T06:04:49.795Z,123.13
2018-10-18T06:05:23.957Z,122.60
2018-10-18T06:05:59.192Z,134.63
2018-10-18T06:06:33.282Z,137.35
2018-10-18T06:07:07.442Z,131.10
2018-10-18T06:07:42.462Z,135.82
2018-10-18T06:08:16.548Z,139.32
2018-10-18T06:08:51.007Z,135.90
2018-10-18T06:09:29.429Z,133.43
2018-10-18T06:10:03.654Z,141.20
2018-10-18T06:10:49.392Z,127.10
2018-10-18T06:11:27.302Z,131.18
2018-10-18T06:12:01.800Z,126.17
2018-10-18T06:12:35.901Z,124.10
2018-10-18T06:13:10.087Z,133.93
2018-10-18T06:13:44.330Z,133.27
2018-10-18T06:14:18.764Z,132.43
2018-10-18T06:14:52.866Z,142.87
2018-10-18T06:15:27.630Z,135.10
2018-10-18T06:16:01.728Z,130.87
2018-10-18T06:16:35.786Z,126.22
2018-10-18T06:17:10.210Z,131.95
2018-10-18T06:17:44.312Z,134.63
2018-10-18T06:18:18.750Z,128.40
2018-10-18T06:18:53.212Z,131.10
2018-10-18T06:19:27.465Z,124.38
2018-10-18T06:20:01.551Z,134.60
2018-10-18T06:20:35.644Z,127.00
2018-10-18T06:21:09.723Z,136.72
2018-10-18T06:21:43.842Z,137.52
2018-10-18T06:22:17.994Z,125.33
2018-10-18T06:22:52.126Z,124.18
2018-10-18T06:23:26.475Z,126.50
2018-10-18T06:24:00.450Z,126.17
2018-10-18T06:24:34.550Z,126.33
2018-10-18T06:25:09.980Z,126.27
2018-10-18T06:25:44.856Z,126.60
2018-10-18T06:26:20.033Z,129.50
2018-10-18T06:26:54.335Z,136.12
2018-10-18T06:27:28.425Z,125.15
2018-10-18T06:28:03.195Z,140.00
2018-10-18T06:28:37.992Z,144.85
2018-10-18T06:29:12.479Z,127.85
2018-10-18T06:29:46.782Z,139.10
2018-10-18T06:30:20.866Z,136.97
2018-10-18T06:30:55.300Z,141.80
2018-10-18T06:31:29.587Z,148.57
2018-10-18T06:32:04.008Z,128.90
2018-10-18T06:32:38.112Z,138.75
2018-10-18T06:33:12.233Z,135.95
2018-10-18T06:33:46.722Z,140.07
2018-10-18T06:34:20.800Z,126.02
2018-10-18T06:34:54.929Z,137.07
2018-10-18T06:35:29.334Z,130.00
2018-10-18T06:36:03.502Z,134.60
2018-10-18T06:36:37.968Z,129.35
2018-10-18T06:37:12.207Z,122.80
2018-10-18T06:37:46.160Z,135.03
2018-10-18T06:38:20.257Z,138.22
2018-10-18T06:38:54.433Z,139.17
2018-10-18T06:39:28.561Z,131.13
2018-10-18T06:40:03.080Z,124.47
2018-10-18T06:40:37.578Z,150.53
2018-10-18T06:41:11.696Z,139.77
2018-10-18T06:41:46.412Z,134.10
2018-10-18T06:42:20.511Z,143.82
2018-10-18T06:42:54.410Z,147.63
2018-10-18T06:43:33.266Z,136.95
2018-10-18T06:44:07.436Z,145.35
2018-10-18T06:44:41.563Z,145.95
2018-10-18T06:45:17.305Z,121.03
2018-10-18T06:45:51.729Z,124.33
2018-10-18T06:46:25.812Z,127.20
2018-10-18T06:47:00.655Z,131.50
2018-10-18T06:47:34.724Z,153.50
2018-10-18T06:48:09.014Z,151.22
2018-10-18T06:48:43.364Z,134.77
2018-10-18T06:49:17.896Z,142.40
2018-10-18T06:49:52.130Z,128.25
2018-10-18T06:50:26.324Z,132.93
2018-10-18T06:51:00.141Z,132.63
2018-10-18T06:51:33.986Z,146.00
2018-10-18T06:52:07.820Z,150.60
2018-10-18T06:52:41.720Z,136.03
2018-10-18T06:53:15.589Z,143.53
2018-10-18T06:53:49.499Z,137.10
2018-10-18T06:54:23.811Z,141.67
2018-10-18T06:54:57.926Z,151.25
2018-10-18T06:55:32.213Z,152.72
2018-10-18T06:56:06.514Z,158.42
2018-10-18T06:56:40.604Z,167.47
2018-10-18T06:57:15.089Z,136.37
2018-10-18T06:57:49.258Z,175.30
2018-10-18T06:58:23.703Z,165.52
2018-10-18T06:58:58.522Z,133.75
2018-10-18T06:59:32.353Z,142.10
2018-10-18T07:00:08.724Z,147.40
2018-10-18T07:00:43.076Z,144.97
2018-10-18T07:01:16.896Z,132.43
2018-10-18T07:01:50.726Z,150.77
2018-10-18T07:02:24.581Z,141.53
2018-10-18T07:02:58.689Z,162.50
2018-10-18T07:03:32.504Z,149.00
2018-10-18T07:04:06.715Z,138.83
2018-10-18T07:04:40.816Z,139.82
2018-10-18T07:05:15.403Z,154.37
2018-10-18T07:05:49.533Z,152.03
2018-10-18T07:06:23.693Z,136.70
2018-10-18T07:06:58.004Z,154.57
2018-10-18T07:07:32.176Z,134.50
2018-10-18T07:08:06.277Z,153.35
2018-10-18T07:08:40.776Z,151.53
2018-10-18T07:09:14.621Z,174.87
2018-10-18T07:09:48.472Z,150.83
2018-10-18T07:10:22.609Z,166.93
2018-10-18T07:10:56.999Z,141.30
2018-10-18T07:11:31.273Z,145.20
2018-10-18T07:12:06.270Z,180.27
2018-10-18T07:12:40.932Z,180.87
2018-10-18T07:13:14.836Z,156.13
2018-10-18T07:13:48.714Z,169.47
2018-10-18T07:14:22.544Z,162.13
2018-10-18T07:14:56.436Z,158.67
2018-10-18T07:15:30.284Z,171.60
2018-10-18T07:16:04.566Z,200.60
2018-10-18T07:16:38.392Z,154.27
2018-10-18T07:17:12.201Z,155.33
2018-10-18T07:17:46.093Z,182.07
2018-10-18T07:18:20.118Z,176.90
2018-10-18T07:18:54.626Z,169.40
2018-10-18T07:19:28.497Z,173.20
2018-10-18T07:20:02.608Z,183.78
2018-10-18T07:20:36.423Z,172.93
2018-10-18T07:21:10.879Z,167.85